sensor_id;sensor_type;location;lat;lon;timestamp;P1;durP1;ratioP1;P2;durP2;ratioP2
4365;SDS011;2196;47.422;9.656;2023-09-30T00:02:26;21.13;;;10.90;;
4365;SDS011;2196;47.422;9.656;2023-09-30T00:04:53;19.27;;;11.27;;
4365;SDS011;2196;47.422;9.656;2023-09-30T00:07:20;22.33;;;11.27;;
4365;SDS011;2196;47.422;9.656;2023-09-30T00:09:49;17.73;;;10.43;;
4365;SDS011;2196;47.422;9.656;2023-09-30T00:12:16;20.47;;;11.60;;
4365;SDS011;2196;47.422;9.656;2023-09-30T00:14:44;23.03;;;11.90;;
4365;SDS011;2196;47.422;9.656;2023-09-30T00:17:10;21.63;;;11.57;;
4365;SDS011;2196;47.422;9.656;2023-09-30T00:19:37;23.17;;;11.77;;
4365;SDS011;2196;47.422;9.656;2023-09-30T00:22:04;23.17;;;11.87;;
4365;SDS011;2196;47.422;9.656;2023-09-30T00:24:31;19.50;;;11.57;;
4365;SDS011;2196;47.422;9.656;2023-09-30T00:27:00;21.07;;;11.83;;
4365;SDS011;2196;47.422;9.656;2023-09-30T00:29:27;25.50;;;12.23;;
4365;SDS011;2196;47.422;9.656;2023-09-30T00:31:54;19.27;;;11.47;;
4365;SDS011;2196;47.422;9.656;2023-09-30T00:34:21;27.53;;;12.80;;
4365;SDS011;2196;47.422;9.656;2023-09-30T00:36:48;23.53;;;12.07;;
4365;SDS011;2196;47.422;9.656;2023-09-30T00:39:15;21.73;;;11.03;;
4365;SDS011;2196;47.422;9.656;2023-09-30T00:41:42;24.47;;;12.27;;
4365;SDS011;2196;47.422;9.656;2023-09-30T00:44:10;23.97;;;12.20;;
4365;SDS011;2196;47.422;9.656;2023-09-30T00:46:38;17.93;;;10.40;;
4365;SDS011;2196;47.422;9.656;2023-09-30T00:49:06;23.27;;;11.70;;
4365;SDS011;2196;47.422;9.656;2023-09-30T00:51:35;24.03;;;12.80;;
4365;SDS011;2196;47.422;9.656;2023-09-30T00:54:02;18.97;;;10.83;;
4365;SDS011;2196;47.422;9.656;2023-09-30T00:56:31;20.43;;;10.53;;
4365;SDS011;2196;47.422;9.656;2023-09-30T00:58:59;19.67;;;10.43;;
4365;SDS011;2196;47.422;9.656;2023-09-30T01:01:28;23.37;;;11.70;;
4365;SDS011;2196;47.422;9.656;2023-09-30T01:03:55;20.47;;;11.23;;
4365;SDS011;2196;47.422;9.656;2023-09-30T01:06:23;18.30;;;9.60;;
4365;SDS011;2196;47.422;9.656;2023-09-30T01:08:50;19.97;;;10.67;;
4365;SDS011;2196;47.422;9.656;2023-09-30T01:11:18;21.17;;;10.53;;
4365;SDS011;2196;47.422;9.656;2023-09-30T01:13:46;16.50;;;9.63;;
4365;SDS011;2196;47.422;9.656;2023-09-30T01:16:14;18.70;;;10.30;;
4365;SDS011;2196;47.422;9.656;2023-09-30T01:18:43;21.03;;;11.23;;
4365;SDS011;2196;47.422;9.656;2023-09-30T01:21:10;19.27;;;10.97;;
4365;SDS011;2196;47.422;9.656;2023-09-30T01:23:39;19.50;;;10.57;;
4365;SDS011;2196;47.422;9.656;2023-09-30T01:26:06;18.57;;;10.80;;
4365;SDS011;2196;47.422;9.656;2023-09-30T01:28:34;19.27;;;10.77;;
4365;SDS011;2196;47.422;9.656;2023-09-30T01:31:01;17.43;;;10.10;;
4365;SDS011;2196;47.422;9.656;2023-09-30T01:33:29;17.73;;;9.87;;
4365;SDS011;2196;47.422;9.656;2023-09-30T01:35:56;17.33;;;9.73;;
4365;SDS011;2196;47.422;9.656;2023-09-30T01:38:24;19.57;;;10.47;;
4365;SDS011;2196;47.422;9.656;2023-09-30T01:40:52;18.60;;;10.53;;
4365;SDS011;2196;47.422;9.656;2023-09-30T01:43:20;18.40;;;9.50;;
4365;SDS011;2196;47.422;9.656;2023-09-30T01:45:47;21.43;;;10.40;;
4365;SDS011;2196;47.422;9.656;2023-09-30T01:48:14;17.57;;;11.30;;
4365;SDS011;2196;47.422;9.656;2023-09-30T01:50:41;18.10;;;9.67;;
4365;SDS011;2196;47.422;9.656;2023-09-30T01:53:08;15.90;;;9.50;;
4365;SDS011;2196;47.422;9.656;2023-09-30T01:55:38;17.37;;;9.70;;
4365;SDS011;2196;47.422;9.656;2023-09-30T01:58:06;16.67;;;9.77;;
4365;SDS011;2196;47.422;9.656;2023-09-30T02:00:36;16.80;;;9.43;;
4365;SDS011;2196;47.422;9.656;2023-09-30T02:03:03;18.87;;;10.17;;
4365;SDS011;2196;47.422;9.656;2023-09-30T02:05:30;19.77;;;10.27;;
4365;SDS011;2196;47.422;9.656;2023-09-30T02:07:57;17.53;;;8.70;;
4365;SDS011;2196;47.422;9.656;2023-09-30T02:10:24;17.13;;;9.03;;
4365;SDS011;2196;47.422;9.656;2023-09-30T02:12:51;19.87;;;9.37;;
4365;SDS011;2196;47.422;9.656;2023-09-30T02:15:20;13.73;;;8.30;;
4365;SDS011;2196;47.422;9.656;2023-09-30T02:17:47;19.73;;;10.33;;
4365;SDS011;2196;47.422;9.656;2023-09-30T02:20:14;19.17;;;10.10;;
4365;SDS011;2196;47.422;9.656;2023-09-30T02:22:44;20.07;;;9.50;;
4365;SDS011;2196;47.422;9.656;2023-09-30T02:25:11;17.50;;;9.07;;
4365;SDS011;2196;47.422;9.656;2023-09-30T02:27:39;14.83;;;8.97;;
4365;SDS011;2196;47.422;9.656;2023-09-30T02:30:07;14.30;;;8.13;;
4365;SDS011;2196;47.422;9.656;2023-09-30T02:32:38;14.57;;;8.10;;
4365;SDS011;2196;47.422;9.656;2023-09-30T02:35:06;19.23;;;9.83;;
4365;SDS011;2196;47.422;9.656;2023-09-30T02:37:36;18.23;;;10.43;;
4365;SDS011;2196;47.422;9.656;2023-09-30T02:40:03;17.80;;;10.03;;
4365;SDS011;2196;47.422;9.656;2023-09-30T02:42:34;16.73;;;8.90;;
4365;SDS011;2196;47.422;9.656;2023-09-30T02:45:01;18.57;;;9.57;;
4365;SDS011;2196;47.422;9.656;2023-09-30T02:47:28;20.90;;;9.90;;
4365;SDS011;2196;47.422;9.656;2023-09-30T02:49:57;15.87;;;9.63;;
4365;SDS011;2196;47.422;9.656;2023-09-30T02:52:25;18.77;;;9.00;;
4365;SDS011;2196;47.422;9.656;2023-09-30T02:54:54;15.37;;;9.30;;
4365;SDS011;2196;47.422;9.656;2023-09-30T02:57:22;18.13;;;9.43;;
4365;SDS011;2196;47.422;9.656;2023-09-30T02:59:49;17.47;;;8.00;;
4365;SDS011;2196;47.422;9.656;2023-09-30T03:02:19;16.57;;;8.17;;
4365;SDS011;2196;47.422;9.656;2023-09-30T03:04:46;17.23;;;8.67;;
4365;SDS011;2196;47.422;9.656;2023-09-30T03:07:17;17.67;;;9.20;;
4365;SDS011;2196;47.422;9.656;2023-09-30T03:09:45;13.10;;;7.20;;
4365;SDS011;2196;47.422;9.656;2023-09-30T03:12:12;17.20;;;7.50;;
4365;SDS011;2196;47.422;9.656;2023-09-30T03:14:40;16.87;;;8.60;;
4365;SDS011;2196;47.422;9.656;2023-09-30T03:17:07;14.83;;;7.67;;
4365;SDS011;2196;47.422;9.656;2023-09-30T03:19:36;14.17;;;8.20;;
4365;SDS011;2196;47.422;9.656;2023-09-30T03:22:04;15.77;;;7.43;;
4365;SDS011;2196;47.422;9.656;2023-09-30T03:24:32;14.80;;;7.80;;
4365;SDS011;2196;47.422;9.656;2023-09-30T03:27:00;16.70;;;7.77;;
4365;SDS011;2196;47.422;9.656;2023-09-30T03:29:27;13.43;;;7.23;;
4365;SDS011;2196;47.422;9.656;2023-09-30T03:31:54;16.87;;;7.70;;
4365;SDS011;2196;47.422;9.656;2023-09-30T03:34:21;14.50;;;7.77;;
4365;SDS011;2196;47.422;9.656;2023-09-30T03:36:48;14.70;;;7.77;;
4365;SDS011;2196;47.422;9.656;2023-09-30T03:39:15;18.03;;;9.33;;
4365;SDS011;2196;47.422;9.656;2023-09-30T03:41:52;17.07;;;8.30;;
4365;SDS011;2196;47.422;9.656;2023-09-30T03:44:21;15.90;;;9.17;;
4365;SDS011;2196;47.422;9.656;2023-09-30T03:46:50;13.37;;;7.77;;
4365;SDS011;2196;47.422;9.656;2023-09-30T03:49:17;18.63;;;9.37;;
4365;SDS011;2196;47.422;9.656;2023-09-30T03:51:46;12.20;;;7.53;;
4365;SDS011;2196;47.422;9.656;2023-09-30T03:54:15;16.43;;;8.47;;
4365;SDS011;2196;47.422;9.656;2023-09-30T03:56:42;14.33;;;8.47;;
4365;SDS011;2196;47.422;9.656;2023-09-30T03:59:10;18.33;;;9.50;;
4365;SDS011;2196;47.422;9.656;2023-09-30T04:01:37;18.10;;;9.23;;
4365;SDS011;2196;47.422;9.656;2023-09-30T04:04:05;21.40;;;9.80;;
4365;SDS011;2196;47.422;9.656;2023-09-30T04:06:34;17.03;;;8.90;;
4365;SDS011;2196;47.422;9.656;2023-09-30T04:09:03;21.90;;;9.87;;
4365;SDS011;2196;47.422;9.656;2023-09-30T04:11:34;18.37;;;9.13;;
4365;SDS011;2196;47.422;9.656;2023-09-30T04:14:02;16.30;;;8.40;;
4365;SDS011;2196;47.422;9.656;2023-09-30T04:16:34;18.70;;;8.70;;
4365;SDS011;2196;47.422;9.656;2023-09-30T04:19:02;16.20;;;9.30;;
4365;SDS011;2196;47.422;9.656;2023-09-30T04:21:29;18.43;;;9.57;;
4365;SDS011;2196;47.422;9.656;2023-09-30T04:23:59;21.17;;;9.33;;
4365;SDS011;2196;47.422;9.656;2023-09-30T04:26:26;17.87;;;9.37;;
4365;SDS011;2196;47.422;9.656;2023-09-30T04:28:53;22.47;;;9.90;;
4365;SDS011;2196;47.422;9.656;2023-09-30T04:31:20;21.63;;;11.23;;
4365;SDS011;2196;47.422;9.656;2023-09-30T04:33:50;19.87;;;10.73;;
4365;SDS011;2196;47.422;9.656;2023-09-30T04:36:17;19.67;;;10.00;;
4365;SDS011;2196;47.422;9.656;2023-09-30T04:38:45;20.70;;;11.50;;
4365;SDS011;2196;47.422;9.656;2023-09-30T04:41:12;19.03;;;9.50;;
4365;SDS011;2196;47.422;9.656;2023-09-30T04:43:40;19.73;;;10.60;;
4365;SDS011;2196;47.422;9.656;2023-09-30T04:46:08;21.73;;;10.43;;
4365;SDS011;2196;47.422;9.656;2023-09-30T04:48:37;18.27;;;9.57;;
4365;SDS011;2196;47.422;9.656;2023-09-30T04:51:07;17.37;;;9.90;;
4365;SDS011;2196;47.422;9.656;2023-09-30T04:53:36;21.73;;;9.87;;
4365;SDS011;2196;47.422;9.656;2023-09-30T04:56:03;18.67;;;9.90;;
4365;SDS011;2196;47.422;9.656;2023-09-30T04:58:31;21.97;;;10.77;;
4365;SDS011;2196;47.422;9.656;2023-09-30T05:00:58;18.63;;;10.30;;
4365;SDS011;2196;47.422;9.656;2023-09-30T05:03:25;20.27;;;10.77;;
4365;SDS011;2196;47.422;9.656;2023-09-30T05:05:52;18.70;;;9.13;;
4365;SDS011;2196;47.422;9.656;2023-09-30T05:08:22;17.47;;;9.40;;
4365;SDS011;2196;47.422;9.656;2023-09-30T05:10:49;20.07;;;10.13;;
4365;SDS011;2196;47.422;9.656;2023-09-30T05:13:16;19.70;;;10.40;;
4365;SDS011;2196;47.422;9.656;2023-09-30T05:15:43;21.43;;;10.30;;
4365;SDS011;2196;47.422;9.656;2023-09-30T05:18:11;19.10;;;10.97;;
4365;SDS011;2196;47.422;9.656;2023-09-30T05:20:38;18.43;;;10.03;;
4365;SDS011;2196;47.422;9.656;2023-09-30T05:23:06;16.27;;;9.27;;
4365;SDS011;2196;47.422;9.656;2023-09-30T05:25:37;16.23;;;8.30;;
4365;SDS011;2196;47.422;9.656;2023-09-30T05:28:08;19.00;;;10.03;;
4365;SDS011;2196;47.422;9.656;2023-09-30T05:30:36;18.10;;;9.17;;
4365;SDS011;2196;47.422;9.656;2023-09-30T05:33:04;20.57;;;9.87;;
4365;SDS011;2196;47.422;9.656;2023-09-30T05:35:31;19.93;;;9.33;;
4365;SDS011;2196;47.422;9.656;2023-09-30T05:37:58;17.43;;;10.03;;
4365;SDS011;2196;47.422;9.656;2023-09-30T05:40:25;16.00;;;9.23;;
4365;SDS011;2196;47.422;9.656;2023-09-30T05:42:57;20.47;;;9.03;;
4365;SDS011;2196;47.422;9.656;2023-09-30T05:45:25;17.47;;;9.73;;
4365;SDS011;2196;47.422;9.656;2023-09-30T05:47:53;18.45;;;11.00;;
4365;SDS011;2196;47.422;9.656;2023-09-30T05:50:22;18.77;;;10.03;;
4365;SDS011;2196;47.422;9.656;2023-09-30T05:52:51;14.63;;;9.23;;
4365;SDS011;2196;47.422;9.656;2023-09-30T05:55:18;19.63;;;10.50;;
4365;SDS011;2196;47.422;9.656;2023-09-30T05:57:46;15.47;;;8.33;;
4365;SDS011;2196;47.422;9.656;2023-09-30T06:00:16;16.77;;;9.63;;
4365;SDS011;2196;47.422;9.656;2023-09-30T06:02:53;20.73;;;9.57;;
4365;SDS011;2196;47.422;9.656;2023-09-30T06:05:20;21.07;;;9.87;;
4365;SDS011;2196;47.422;9.656;2023-09-30T06:07:48;16.03;;;8.47;;
4365;SDS011;2196;47.422;9.656;2023-09-30T06:10:15;16.93;;;9.30;;
4365;SDS011;2196;47.422;9.656;2023-09-30T06:12:44;18.53;;;9.00;;
4365;SDS011;2196;47.422;9.656;2023-09-30T06:15:12;18.63;;;9.40;;
4365;SDS011;2196;47.422;9.656;2023-09-30T06:17:42;15.93;;;8.53;;
4365;SDS011;2196;47.422;9.656;2023-09-30T06:20:09;16.63;;;9.40;;
4365;SDS011;2196;47.422;9.656;2023-09-30T06:22:41;22.13;;;12.00;;
4365;SDS011;2196;47.422;9.656;2023-09-30T06:25:10;16.47;;;9.93;;
4365;SDS011;2196;47.422;9.656;2023-09-30T06:27:38;20.50;;;9.23;;
4365;SDS011;2196;47.422;9.656;2023-09-30T06:30:06;18.23;;;8.33;;
4365;SDS011;2196;47.422;9.656;2023-09-30T06:32:34;17.07;;;8.40;;
4365;SDS011;2196;47.422;9.656;2023-09-30T06:35:03;17.43;;;8.63;;
4365;SDS011;2196;47.422;9.656;2023-09-30T06:37:31;13.20;;;8.43;;
4365;SDS011;2196;47.422;9.656;2023-09-30T06:39:58;14.90;;;7.67;;
4365;SDS011;2196;47.422;9.656;2023-09-30T06:42:29;14.57;;;7.57;;
4365;SDS011;2196;47.422;9.656;2023-09-30T06:44:56;16.57;;;7.40;;
4365;SDS011;2196;47.422;9.656;2023-09-30T06:47:23;17.03;;;7.00;;
4365;SDS011;2196;47.422;9.656;2023-09-30T06:49:50;13.87;;;7.77;;
4365;SDS011;2196;47.422;9.656;2023-09-30T06:52:19;13.57;;;7.07;;
4365;SDS011;2196;47.422;9.656;2023-09-30T06:54:46;16.23;;;8.07;;
4365;SDS011;2196;47.422;9.656;2023-09-30T06:57:13;14.80;;;7.30;;
4365;SDS011;2196;47.422;9.656;2023-09-30T06:59:40;14.10;;;7.47;;
4365;SDS011;2196;47.422;9.656;2023-09-30T07:02:07;12.67;;;6.87;;
4365;SDS011;2196;47.422;9.656;2023-09-30T07:04:34;16.43;;;7.93;;
4365;SDS011;2196;47.422;9.656;2023-09-30T07:07:01;13.63;;;6.73;;
4365;SDS011;2196;47.422;9.656;2023-09-30T07:09:30;15.70;;;8.17;;
4365;SDS011;2196;47.422;9.656;2023-09-30T07:11:57;11.10;;;6.30;;
4365;SDS011;2196;47.422;9.656;2023-09-30T07:14:24;14.80;;;6.83;;
4365;SDS011;2196;47.422;9.656;2023-09-30T07:16:51;15.67;;;6.87;;
4365;SDS011;2196;47.422;9.656;2023-09-30T07:19:19;12.90;;;6.53;;
4365;SDS011;2196;47.422;9.656;2023-09-30T07:21:46;11.70;;;6.60;;
4365;SDS011;2196;47.422;9.656;2023-09-30T07:24:13;17.40;;;7.70;;
4365;SDS011;2196;47.422;9.656;2023-09-30T07:26:41;11.83;;;7.33;;
4365;SDS011;2196;47.422;9.656;2023-09-30T07:29:08;11.67;;;6.33;;
4365;SDS011;2196;47.422;9.656;2023-09-30T07:31:35;15.93;;;6.43;;
4365;SDS011;2196;47.422;9.656;2023-09-30T07:34:02;11.90;;;6.23;;
4365;SDS011;2196;47.422;9.656;2023-09-30T07:36:29;10.47;;;5.70;;
4365;SDS011;2196;47.422;9.656;2023-09-30T07:38:56;11.20;;;6.17;;
4365;SDS011;2196;47.422;9.656;2023-09-30T07:41:25;14.30;;;5.60;;
4365;SDS011;2196;47.422;9.656;2023-09-30T07:43:54;13.23;;;7.00;;
4365;SDS011;2196;47.422;9.656;2023-09-30T07:46:21;13.07;;;6.93;;
4365;SDS011;2196;47.422;9.656;2023-09-30T07:48:48;12.37;;;6.33;;
4365;SDS011;2196;47.422;9.656;2023-09-30T07:51:14;13.57;;;6.40;;
4365;SDS011;2196;47.422;9.656;2023-09-30T07:53:41;14.63;;;7.07;;
4365;SDS011;2196;47.422;9.656;2023-09-30T07:56:07;12.93;;;6.40;;
4365;SDS011;2196;47.422;9.656;2023-09-30T07:58:34;15.10;;;7.20;;
4365;SDS011;2196;47.422;9.656;2023-09-30T08:01:03;15.17;;;7.30;;
4365;SDS011;2196;47.422;9.656;2023-09-30T08:03:30;15.63;;;7.57;;
4365;SDS011;2196;47.422;9.656;2023-09-30T08:05:58;14.93;;;7.30;;
4365;SDS011;2196;47.422;9.656;2023-09-30T08:08:27;13.13;;;7.10;;
4365;SDS011;2196;47.422;9.656;2023-09-30T08:10:54;15.40;;;8.27;;
4365;SDS011;2196;47.422;9.656;2023-09-30T08:13:22;12.97;;;7.03;;
4365;SDS011;2196;47.422;9.656;2023-09-30T08:15:49;11.93;;;6.20;;
4365;SDS011;2196;47.422;9.656;2023-09-30T08:18:19;15.63;;;7.80;;
4365;SDS011;2196;47.422;9.656;2023-09-30T08:20:46;16.53;;;7.73;;
4365;SDS011;2196;47.422;9.656;2023-09-30T08:23:14;14.97;;;7.67;;
4365;SDS011;2196;47.422;9.656;2023-09-30T08:25:43;14.00;;;7.77;;
4365;SDS011;2196;47.422;9.656;2023-09-30T08:28:11;15.70;;;7.20;;
4365;SDS011;2196;47.422;9.656;2023-09-30T08:30:39;16.73;;;7.80;;
4365;SDS011;2196;47.422;9.656;2023-09-30T08:33:06;13.23;;;7.30;;
4365;SDS011;2196;47.422;9.656;2023-09-30T08:45:43;15.90;;;7.30;;
4365;SDS011;2196;47.422;9.656;2023-09-30T08:48:13;15.37;;;7.10;;
4365;SDS011;2196;47.422;9.656;2023-09-30T08:50:41;14.33;;;7.50;;
4365;SDS011;2196;47.422;9.656;2023-09-30T08:53:09;13.67;;;7.13;;
4365;SDS011;2196;47.422;9.656;2023-09-30T08:55:39;17.20;;;7.90;;
4365;SDS011;2196;47.422;9.656;2023-09-30T08:58:08;15.13;;;8.32;;
4365;SDS011;2196;47.422;9.656;2023-09-30T09:00:35;14.00;;;8.00;;
4365;SDS011;2196;47.422;9.656;2023-09-30T09:03:05;12.90;;;6.80;;
4365;SDS011;2196;47.422;9.656;2023-09-30T09:05:33;15.90;;;7.13;;
4365;SDS011;2196;47.422;9.656;2023-09-30T09:08:04;13.70;;;7.27;;
4365;SDS011;2196;47.422;9.656;2023-09-30T09:10:31;15.67;;;7.23;;
4365;SDS011;2196;47.422;9.656;2023-09-30T09:12:58;12.30;;;6.93;;
4365;SDS011;2196;47.422;9.656;2023-09-30T09:15:26;11.23;;;6.90;;
4365;SDS011;2196;47.422;9.656;2023-09-30T09:17:54;18.67;;;7.73;;
4365;SDS011;2196;47.422;9.656;2023-09-30T09:20:23;14.87;;;7.83;;
4365;SDS011;2196;47.422;9.656;2023-09-30T09:22:52;11.37;;;6.60;;
4365;SDS011;2196;47.422;9.656;2023-09-30T09:25:20;12.93;;;6.80;;
4365;SDS011;2196;47.422;9.656;2023-09-30T09:27:49;14.87;;;7.17;;
4365;SDS011;2196;47.422;9.656;2023-09-30T09:30:17;12.73;;;7.07;;
4365;SDS011;2196;47.422;9.656;2023-09-30T09:32:54;15.47;;;7.50;;
4365;SDS011;2196;47.422;9.656;2023-09-30T09:35:27;13.40;;;7.23;;
4365;SDS011;2196;47.422;9.656;2023-09-30T09:37:56;14.03;;;7.27;;
4365;SDS011;2196;47.422;9.656;2023-09-30T09:40:25;10.90;;;6.93;;
4365;SDS011;2196;47.422;9.656;2023-09-30T09:42:53;13.83;;;6.67;;
4365;SDS011;2196;47.422;9.656;2023-09-30T09:45:21;14.07;;;7.50;;
4365;SDS011;2196;47.422;9.656;2023-09-30T09:47:49;13.17;;;7.10;;
4365;SDS011;2196;47.422;9.656;2023-09-30T09:50:17;15.00;;;7.97;;
4365;SDS011;2196;47.422;9.656;2023-09-30T09:52:48;14.60;;;7.67;;
4365;SDS011;2196;47.422;9.656;2023-09-30T09:55:16;12.60;;;6.40;;
4365;SDS011;2196;47.422;9.656;2023-09-30T09:57:44;15.73;;;7.87;;
4365;SDS011;2196;47.422;9.656;2023-09-30T10:00:12;12.00;;;7.23;;
4365;SDS011;2196;47.422;9.656;2023-09-30T10:02:41;13.50;;;7.17;;
4365;SDS011;2196;47.422;9.656;2023-09-30T10:05:08;12.33;;;7.13;;
4365;SDS011;2196;47.422;9.656;2023-09-30T10:07:38;14.90;;;7.20;;
4365;SDS011;2196;47.422;9.656;2023-09-30T10:10:12;13.90;;;7.27;;
4365;SDS011;2196;47.422;9.656;2023-09-30T10:12:42;12.90;;;7.27;;
4365;SDS011;2196;47.422;9.656;2023-09-30T10:18:08;16.70;;;8.33;;
4365;SDS011;2196;47.422;9.656;2023-09-30T10:20:36;15.40;;;6.93;;
4365;SDS011;2196;47.422;9.656;2023-09-30T10:23:19;12.43;;;7.43;;
4365;SDS011;2196;47.422;9.656;2023-09-30T10:25:51;15.90;;;8.13;;
4365;SDS011;2196;47.422;9.656;2023-09-30T10:28:35;18.97;;;7.53;;
4365;SDS011;2196;47.422;9.656;2023-09-30T10:31:09;12.83;;;7.30;;
4365;SDS011;2196;47.422;9.656;2023-09-30T10:36:43;11.70;;;6.37;;
4365;SDS011;2196;47.422;9.656;2023-09-30T10:39:13;12.73;;;6.87;;
4365;SDS011;2196;47.422;9.656;2023-09-30T10:41:51;13.77;;;7.50;;
4365;SDS011;2196;47.422;9.656;2023-09-30T10:44:33;16.53;;;7.50;;
4365;SDS011;2196;47.422;9.656;2023-09-30T10:50:02;19.40;;;7.20;;
4365;SDS011;2196;47.422;9.656;2023-09-30T10:52:30;14.83;;;7.57;;
4365;SDS011;2196;47.422;9.656;2023-09-30T10:55:02;14.97;;;8.40;;
4365;SDS011;2196;47.422;9.656;2023-09-30T10:57:33;11.57;;;6.37;;
4365;SDS011;2196;47.422;9.656;2023-09-30T11:00:07;12.87;;;7.63;;
4365;SDS011;2196;47.422;9.656;2023-09-30T11:02:47;15.13;;;7.10;;
4365;SDS011;2196;47.422;9.656;2023-09-30T11:05:16;11.33;;;7.07;;
4365;SDS011;2196;47.422;9.656;2023-09-30T11:07:44;19.23;;;8.33;;
4365;SDS011;2196;47.422;9.656;2023-09-30T11:10:15;15.90;;;7.97;;
4365;SDS011;2196;47.422;9.656;2023-09-30T11:12:55;15.77;;;6.70;;
4365;SDS011;2196;47.422;9.656;2023-09-30T11:15:22;14.33;;;7.00;;
4365;SDS011;2196;47.422;9.656;2023-09-30T11:17:49;16.47;;;7.77;;
4365;SDS011;2196;47.422;9.656;2023-09-30T11:20:19;13.57;;;7.03;;
4365;SDS011;2196;47.422;9.656;2023-09-30T11:22:47;9.83;;;6.90;;
4365;SDS011;2196;47.422;9.656;2023-09-30T11:25:17;12.43;;;6.90;;
4365;SDS011;2196;47.422;9.656;2023-09-30T11:27:44;15.43;;;7.53;;
4365;SDS011;2196;47.422;9.656;2023-09-30T11:30:13;12.40;;;6.23;;
4365;SDS011;2196;47.422;9.656;2023-09-30T11:32:41;14.47;;;6.33;;
4365;SDS011;2196;47.422;9.656;2023-09-30T11:35:08;10.67;;;5.60;;
4365;SDS011;2196;47.422;9.656;2023-09-30T11:37:36;14.30;;;6.33;;
4365;SDS011;2196;47.422;9.656;2023-09-30T11:40:10;14.23;;;6.97;;
4365;SDS011;2196;47.422;9.656;2023-09-30T11:42:39;15.97;;;7.00;;
4365;SDS011;2196;47.422;9.656;2023-09-30T11:45:19;13.53;;;7.60;;
4365;SDS011;2196;47.422;9.656;2023-09-30T11:47:47;13.70;;;6.93;;
4365;SDS011;2196;47.422;9.656;2023-09-30T11:50:14;12.33;;;5.67;;
4365;SDS011;2196;47.422;9.656;2023-09-30T11:52:44;10.87;;;7.13;;
4365;SDS011;2196;47.422;9.656;2023-09-30T11:55:12;12.90;;;6.67;;
4365;SDS011;2196;47.422;9.656;2023-09-30T11:57:41;9.90;;;5.77;;
4365;SDS011;2196;47.422;9.656;2023-09-30T12:00:12;13.30;;;7.87;;
4365;SDS011;2196;47.422;9.656;2023-09-30T12:02:44;15.37;;;6.20;;
4365;SDS011;2196;47.422;9.656;2023-09-30T12:05:11;13.00;;;7.10;;
4365;SDS011;2196;47.422;9.656;2023-09-30T12:07:39;14.60;;;7.37;;
4365;SDS011;2196;47.422;9.656;2023-09-30T12:10:07;13.17;;;6.80;;
4365;SDS011;2196;47.422;9.656;2023-09-30T12:12:34;13.40;;;7.20;;
4365;SDS011;2196;47.422;9.656;2023-09-30T12:15:05;13.53;;;7.53;;
4365;SDS011;2196;47.422;9.656;2023-09-30T12:17:34;13.47;;;7.13;;
4365;SDS011;2196;47.422;9.656;2023-09-30T12:20:04;14.43;;;7.27;;
4365;SDS011;2196;47.422;9.656;2023-09-30T12:22:31;14.17;;;7.50;;
4365;SDS011;2196;47.422;9.656;2023-09-30T12:24:58;16.23;;;7.43;;
4365;SDS011;2196;47.422;9.656;2023-09-30T12:27:26;13.63;;;7.53;;
4365;SDS011;2196;47.422;9.656;2023-09-30T12:29:53;17.03;;;8.50;;
4365;SDS011;2196;47.422;9.656;2023-09-30T12:32:20;11.80;;;7.47;;
4365;SDS011;2196;47.422;9.656;2023-09-30T12:34:48;13.10;;;6.77;;
4365;SDS011;2196;47.422;9.656;2023-09-30T12:37:17;13.40;;;7.57;;
4365;SDS011;2196;47.422;9.656;2023-09-30T12:39:44;12.40;;;6.67;;
4365;SDS011;2196;47.422;9.656;2023-09-30T12:42:12;14.53;;;7.30;;
4365;SDS011;2196;47.422;9.656;2023-09-30T12:44:40;14.30;;;6.47;;
4365;SDS011;2196;47.422;9.656;2023-09-30T12:47:08;16.43;;;9.03;;
4365;SDS011;2196;47.422;9.656;2023-09-30T12:49:34;14.30;;;7.70;;
4365;SDS011;2196;47.422;9.656;2023-09-30T12:52:02;16.23;;;7.97;;
4365;SDS011;2196;47.422;9.656;2023-09-30T12:54:32;14.23;;;8.50;;
4365;SDS011;2196;47.422;9.656;2023-09-30T12:56:59;16.83;;;8.10;;
4365;SDS011;2196;47.422;9.656;2023-09-30T12:59:26;14.33;;;8.33;;
4365;SDS011;2196;47.422;9.656;2023-09-30T13:01:53;18.47;;;9.40;;
4365;SDS011;2196;47.422;9.656;2023-09-30T13:04:21;12.90;;;7.13;;
4365;SDS011;2196;47.422;9.656;2023-09-30T13:06:48;15.13;;;8.60;;
4365;SDS011;2196;47.422;9.656;2023-09-30T13:09:16;17.90;;;8.57;;
4365;SDS011;2196;47.422;9.656;2023-09-30T13:11:46;15.33;;;7.90;;
4365;SDS011;2196;47.422;9.656;2023-09-30T13:14:13;12.73;;;7.10;;
4365;SDS011;2196;47.422;9.656;2023-09-30T13:16:40;16.10;;;8.43;;
4365;SDS011;2196;47.422;9.656;2023-09-30T13:19:07;14.97;;;7.80;;
4365;SDS011;2196;47.422;9.656;2023-09-30T13:21:34;16.00;;;7.90;;
4365;SDS011;2196;47.422;9.656;2023-09-30T13:24:01;12.43;;;6.73;;
4365;SDS011;2196;47.422;9.656;2023-09-30T13:26:32;13.60;;;7.70;;
4365;SDS011;2196;47.422;9.656;2023-09-30T13:29:00;16.43;;;7.77;;
4365;SDS011;2196;47.422;9.656;2023-09-30T13:31:30;13.17;;;6.90;;
4365;SDS011;2196;47.422;9.656;2023-09-30T13:33:57;14.43;;;6.70;;
4365;SDS011;2196;47.422;9.656;2023-09-30T13:36:24;14.77;;;8.17;;
4365;SDS011;2196;47.422;9.656;2023-09-30T13:38:51;13.17;;;7.23;;
4365;SDS011;2196;47.422;9.656;2023-09-30T13:41:19;15.47;;;7.73;;
4365;SDS011;2196;47.422;9.656;2023-09-30T13:43:46;13.73;;;7.20;;
4365;SDS011;2196;47.422;9.656;2023-09-30T13:46:15;13.50;;;7.80;;
4365;SDS011;2196;47.422;9.656;2023-09-30T13:48:42;12.80;;;6.90;;
4365;SDS011;2196;47.422;9.656;2023-09-30T13:51:09;14.13;;;6.97;;
4365;SDS011;2196;47.422;9.656;2023-09-30T13:53:36;11.30;;;6.53;;
4365;SDS011;2196;47.422;9.656;2023-09-30T13:56:04;15.90;;;8.40;;
4365;SDS011;2196;47.422;9.656;2023-09-30T13:58:32;14.30;;;7.63;;
4365;SDS011;2196;47.422;9.656;2023-09-30T14:00:59;13.03;;;6.60;;
4365;SDS011;2196;47.422;9.656;2023-09-30T14:03:28;17.83;;;8.03;;
4365;SDS011;2196;47.422;9.656;2023-09-30T14:05:55;12.33;;;6.63;;
4365;SDS011;2196;47.422;9.656;2023-09-30T14:08:23;10.77;;;7.17;;
4365;SDS011;2196;47.422;9.656;2023-09-30T14:10:50;12.90;;;6.83;;
4365;SDS011;2196;47.422;9.656;2023-09-30T14:13:17;13.90;;;6.93;;
4365;SDS011;2196;47.422;9.656;2023-09-30T14:15:44;15.60;;;7.50;;
4365;SDS011;2196;47.422;9.656;2023-09-30T14:18:11;13.23;;;6.40;;
4365;SDS011;2196;47.422;9.656;2023-09-30T14:20:41;15.17;;;7.67;;
4365;SDS011;2196;47.422;9.656;2023-09-30T14:23:08;13.30;;;7.27;;
4365;SDS011;2196;47.422;9.656;2023-09-30T14:25:38;12.70;;;7.10;;
4365;SDS011;2196;47.422;9.656;2023-09-30T14:28:06;19.70;;;7.70;;
4365;SDS011;2196;47.422;9.656;2023-09-30T14:30:33;13.87;;;8.00;;
4365;SDS011;2196;47.422;9.656;2023-09-30T14:33:04;11.20;;;6.70;;
4365;SDS011;2196;47.422;9.656;2023-09-30T14:35:32;12.67;;;6.27;;
4365;SDS011;2196;47.422;9.656;2023-09-30T14:38:01;13.73;;;7.57;;
4365;SDS011;2196;47.422;9.656;2023-09-30T14:40:29;13.00;;;7.17;;
4365;SDS011;2196;47.422;9.656;2023-09-30T14:42:56;16.53;;;7.13;;
4365;SDS011;2196;47.422;9.656;2023-09-30T14:45:23;12.90;;;7.17;;
4365;SDS011;2196;47.422;9.656;2023-09-30T14:47:50;13.63;;;7.57;;
4365;SDS011;2196;47.422;9.656;2023-09-30T14:50:17;13.07;;;6.80;;
4365;SDS011;2196;47.422;9.656;2023-09-30T14:52:44;10.93;;;6.47;;
4365;SDS011;2196;47.422;9.656;2023-09-30T14:55:12;13.63;;;7.30;;
4365;SDS011;2196;47.422;9.656;2023-09-30T14:57:41;12.93;;;7.53;;
4365;SDS011;2196;47.422;9.656;2023-09-30T15:00:09;14.20;;;7.97;;
4365;SDS011;2196;47.422;9.656;2023-09-30T15:02:37;13.00;;;7.17;;
4365;SDS011;2196;47.422;9.656;2023-09-30T15:05:05;16.50;;;8.53;;
4365;SDS011;2196;47.422;9.656;2023-09-30T15:07:34;12.90;;;7.53;;
4365;SDS011;2196;47.422;9.656;2023-09-30T15:10:02;14.17;;;6.90;;
4365;SDS011;2196;47.422;9.656;2023-09-30T15:12:31;11.10;;;6.93;;
4365;SDS011;2196;47.422;9.656;2023-09-30T15:14:58;14.60;;;7.20;;
4365;SDS011;2196;47.422;9.656;2023-09-30T15:17:25;15.27;;;7.73;;
4365;SDS011;2196;47.422;9.656;2023-09-30T15:19:52;12.10;;;7.13;;
4365;SDS011;2196;47.422;9.656;2023-09-30T15:22:19;13.43;;;6.97;;
4365;SDS011;2196;47.422;9.656;2023-09-30T15:24:46;14.93;;;7.77;;